sensor_id;sensor_type;location;lat;lon;timestamp;temperature;humidity
5492;DHT22;2768;53.540;10.224;2023-02-28T00:03:49;5.70;66.10
5492;DHT22;2768;53.540;10.224;2023-02-28T00:09:42;5.50;65.00
5492;DHT22;2768;53.540;10.224;2023-02-28T00:15:37;5.40;64.20
5492;DHT22;2768;53.540;10.224;2023-02-28T00:21:31;5.50;72.50
5492;DHT22;2768;53.540;10.224;2023-02-28T00:27:25;5.60;71.80
5492;DHT22;2768;53.540;10.224;2023-02-28T00:33:20;5.40;69.20
5492;DHT22;2768;53.540;10.224;2023-02-28T00:39:13;5.20;70.10
5492;DHT22;2768;53.540;10.224;2023-02-28T00:45:07;5.10;77.00
5492;DHT22;2768;53.540;10.224;2023-02-28T00:51:04;4.80;73.90
5492;DHT22;2768;53.540;10.224;2023-02-28T00:56:58;5.00;84.30
5492;DHT22;2768;53.540;10.224;2023-02-28T01:02:51;4.70;88.50
5492;DHT22;2768;53.540;10.224;2023-02-28T01:08:48;4.90;93.00
5492;DHT22;2768;53.540;10.224;2023-02-28T01:14:41;4.80;94.70
5492;DHT22;2768;53.540;10.224;2023-02-28T01:20:36;4.80;96.00
5492;DHT22;2768;53.540;10.224;2023-02-28T01:26:31;4.20;95.10
5492;DHT22;2768;53.540;10.224;2023-02-28T01:32:24;4.20;98.80
5492;DHT22;2768;53.540;10.224;2023-02-28T01:38:18;4.40;99.90
5492;DHT22;2768;53.540;10.224;2023-02-28T01:50:47;4.20;98.80
5492;DHT22;2768;53.540;10.224;2023-02-28T01:56:44;4.10;99.90
5492;DHT22;2768;53.540;10.224;2023-02-28T02:02:39;3.90;99.90
5492;DHT22;2768;53.540;10.224;2023-02-28T02:08:34;4.00;99.90
5492;DHT22;2768;53.540;10.224;2023-02-28T02:14:43;3.60;98.50
5492;DHT22;2768;53.540;10.224;2023-02-28T02:27:25;3.60;99.90
5492;DHT22;2768;53.540;10.224;2023-02-28T02:33:45;3.50;99.90
5492;DHT22;2768;53.540;10.224;2023-02-28T02:39:50;3.40;99.90
5492;DHT22;2768;53.540;10.224;2023-02-28T02:45:49;3.30;99.90
5492;DHT22;2768;53.540;10.224;2023-02-28T02:51:47;3.30;99.90
5492;DHT22;2768;53.540;10.224;2023-02-28T02:57:46;3.30;99.90
5492;DHT22;2768;53.540;10.224;2023-02-28T03:03:40;3.60;99.90
5492;DHT22;2768;53.540;10.224;2023-02-28T03:09:34;3.30;99.90
5492;DHT22;2768;53.540;10.224;2023-02-28T03:15:40;3.40;99.90
5492;DHT22;2768;53.540;10.224;2023-02-28T03:21:39;3.00;99.90
5492;DHT22;2768;53.540;10.224;2023-02-28T03:27:39;3.10;99.90
5492;DHT22;2768;53.540;10.224;2023-02-28T03:33:40;3.10;99.90
5492;DHT22;2768;53.540;10.224;2023-02-28T03:39:38;2.90;99.90
5492;DHT22;2768;53.540;10.224;2023-02-28T03:45:36;2.80;99.90
5492;DHT22;2768;53.540;10.224;2023-02-28T03:51:32;2.70;99.90
5492;DHT22;2768;53.540;10.224;2023-02-28T03:57:31;3.20;99.90
5492;DHT22;2768;53.540;10.224;2023-02-28T04:03:26;3.30;99.90
5492;DHT22;2768;53.540;10.224;2023-02-28T04:09:21;3.30;99.90
5492;DHT22;2768;53.540;10.224;2023-02-28T04:15:14;2.90;99.90
5492;DHT22;2768;53.540;10.224;2023-02-28T04:21:09;2.60;99.90
5492;DHT22;2768;53.540;10.224;2023-02-28T04:27:03;2.70;99.90
5492;DHT22;2768;53.540;10.224;2023-02-28T04:32:57;3.00;99.90
5492;DHT22;2768;53.540;10.224;2023-02-28T04:38:51;3.00;99.90
5492;DHT22;2768;53.540;10.224;2023-02-28T04:44:45;2.60;99.90
5492;DHT22;2768;53.540;10.224;2023-02-28T04:50:39;2.40;99.90
5492;DHT22;2768;53.540;10.224;2023-02-28T04:56:33;2.40;99.90
5492;DHT22;2768;53.540;10.224;2023-02-28T05:02:28;2.20;99.90
5492;DHT22;2768;53.540;10.224;2023-02-28T05:08:21;2.30;99.90
5492;DHT22;2768;53.540;10.224;2023-02-28T05:14:15;2.30;99.90
5492;DHT22;2768;53.540;10.224;2023-02-28T05:20:11;2.70;99.90
5492;DHT22;2768;53.540;10.224;2023-02-28T05:26:07;2.30;99.90
5492;DHT22;2768;53.540;10.224;2023-02-28T05:32:00;1.90;99.90
5492;DHT22;2768;53.540;10.224;2023-02-28T05:37:55;2.10;99.90
5492;DHT22;2768;53.540;10.224;2023-02-28T05:43:48;2.20;99.90
5492;DHT22;2768;53.540;10.224;2023-02-28T05:49:42;1.90;99.90
5492;DHT22;2768;53.540;10.224;2023-02-28T05:55:38;1.70;99.90
5492;DHT22;2768;53.540;10.224;2023-02-28T06:01:34;1.80;99.90
5492;DHT22;2768;53.540;10.224;2023-02-28T06:07:28;1.90;99.90
5492;DHT22;2768;53.540;10.224;2023-02-28T06:13:22;1.80;99.90
5492;DHT22;2768;53.540;10.224;2023-02-28T06:19:16;1.50;99.90
5492;DHT22;2768;53.540;10.224;2023-02-28T06:25:10;1.70;99.90
5492;DHT22;2768;53.540;10.224;2023-02-28T06:31:08;1.40;99.90
5492;DHT22;2768;53.540;10.224;2023-02-28T06:37:02;1.80;99.90
5492;DHT22;2768;53.540;10.224;2023-02-28T06:42:55;2.20;99.90
5492;DHT22;2768;53.540;10.224;2023-02-28T06:48:50;2.30;99.90
5492;DHT22;2768;53.540;10.224;2023-02-28T06:54:43;2.30;99.90
5492;DHT22;2768;53.540;10.224;2023-02-28T07:00:36;2.30;99.90
5492;DHT22;2768;53.540;10.224;2023-02-28T07:06:31;2.40;99.90
5492;DHT22;2768;53.540;10.224;2023-02-28T07:12:24;2.30;99.90
5492;DHT22;2768;53.540;10.224;2023-02-28T07:18:17;2.10;99.90
5492;DHT22;2768;53.540;10.224;2023-02-28T07:24:12;2.50;99.90
5492;DHT22;2768;53.540;10.224;2023-02-28T07:30:09;2.70;99.90
5492;DHT22;2768;53.540;10.224;2023-02-28T07:36:03;2.80;99.90
5492;DHT22;2768;53.540;10.224;2023-02-28T07:41:57;3.00;99.90
5492;DHT22;2768;53.540;10.224;2023-02-28T07:47:51;3.10;99.90
5492;DHT22;2768;53.540;10.224;2023-02-28T07:53:45;3.10;99.90
5492;DHT22;2768;53.540;10.224;2023-02-28T07:59:39;3.20;99.90
5492;DHT22;2768;53.540;10.224;2023-02-28T08:05:32;3.30;99.90
5492;DHT22;2768;53.540;10.224;2023-02-28T08:11:25;3.40;99.90
5492;DHT22;2768;53.540;10.224;2023-02-28T08:17:20;3.50;99.90
5492;DHT22;2768;53.540;10.224;2023-02-28T08:23:14;3.60;99.90
5492;DHT22;2768;53.540;10.224;2023-02-28T08:29:07;3.70;99.90
5492;DHT22;2768;53.540;10.224;2023-02-28T08:35:01;3.80;99.90
5492;DHT22;2768;53.540;10.224;2023-02-28T08:40:58;3.90;99.90
5492;DHT22;2768;53.540;10.224;2023-02-28T08:46:52;4.10;99.90
5492;DHT22;2768;53.540;10.224;2023-02-28T08:52:47;4.10;99.90
5492;DHT22;2768;53.540;10.224;2023-02-28T08:58:40;4.20;99.90
5492;DHT22;2768;53.540;10.224;2023-02-28T09:04:33;4.30;99.90
5492;DHT22;2768;53.540;10.224;2023-02-28T09:10:29;4.50;99.90
5492;DHT22;2768;53.540;10.224;2023-02-28T09:16:22;4.50;99.90
5492;DHT22;2768;53.540;10.224;2023-02-28T09:22:15;4.70;99.90
5492;DHT22;2768;53.540;10.224;2023-02-28T09:28:10;4.90;99.90
5492;DHT22;2768;53.540;10.224;2023-02-28T09:34:04;5.00;96.40
5492;DHT22;2768;53.540;10.224;2023-02-28T09:39:58;5.10;91.00
5492;DHT22;2768;53.540;10.224;2023-02-28T09:45:55;5.20;59.90
5492;DHT22;2768;53.540;10.224;2023-02-28T09:51:53;5.70;58.20
5492;DHT22;2768;53.540;10.224;2023-02-28T09:57:50;5.90;34.00
5492;DHT22;2768;53.540;10.224;2023-02-28T10:03:50;6.40;16.20
5492;DHT22;2768;53.540;10.224;2023-02-28T10:09:53;7.20;2.10
5492;DHT22;2768;53.540;10.224;2023-02-28T10:15:51;8.60;1.90
5492;DHT22;2768;53.540;10.224;2023-02-28T10:21:50;9.30;1.00
5492;DHT22;2768;53.540;10.224;2023-02-28T10:27:48;9.80;1.00
5492;DHT22;2768;53.540;10.224;2023-02-28T10:33:42;10.20;1.00
5492;DHT22;2768;53.540;10.224;2023-02-28T10:39:41;10.30;1.00
5492;DHT22;2768;53.540;10.224;2023-02-28T10:45:35;11.10;1.00
5492;DHT22;2768;53.540;10.224;2023-02-28T10:51:35;11.60;1.00
5492;DHT22;2768;53.540;10.224;2023-02-28T10:57:30;12.30;1.00
5492;DHT22;2768;53.540;10.224;2023-02-28T11:03:29;13.00;1.00
5492;DHT22;2768;53.540;10.224;2023-02-28T11:09:26;13.70;1.00
5492;DHT22;2768;53.540;10.224;2023-02-28T11:15:26;13.70;1.00
5492;DHT22;2768;53.540;10.224;2023-02-28T11:21:23;13.70;1.00
5492;DHT22;2768;53.540;10.224;2023-02-28T11:27:26;13.50;1.00
5492;DHT22;2768;53.540;10.224;2023-02-28T11:33:27;14.00;1.00
5492;DHT22;2768;53.540;10.224;2023-02-28T11:39:21;14.90;1.00
5492;DHT22;2768;53.540;10.224;2023-02-28T11:45:21;14.90;1.00
5492;DHT22;2768;53.540;10.224;2023-02-28T11:51:21;15.20;1.00
5492;DHT22;2768;53.540;10.224;2023-02-28T11:57:29;15.70;1.00
5492;DHT22;2768;53.540;10.224;2023-02-28T12:03:30;15.60;1.00
5492;DHT22;2768;53.540;10.224;2023-02-28T12:09:40;15.10;1.00
5492;DHT22;2768;53.540;10.224;2023-02-28T12:16:08;16.00;1.00
5492;DHT22;2768;53.540;10.224;2023-02-28T12:22:21;16.30;1.00
5492;DHT22;2768;53.540;10.224;2023-02-28T12:28:20;16.60;1.00
5492;DHT22;2768;53.540;10.224;2023-02-28T12:34:19;16.30;1.00
5492;DHT22;2768;53.540;10.224;2023-02-28T12:40:17;16.00;1.00
5492;DHT22;2768;53.540;10.224;2023-02-28T12:46:16;16.40;1.00
5492;DHT22;2768;53.540;10.224;2023-02-28T12:52:13;16.40;1.00
5492;DHT22;2768;53.540;10.224;2023-02-28T12:58:16;16.60;1.00
5492;DHT22;2768;53.540;10.224;2023-02-28T13:04:36;16.60;1.00
5492;DHT22;2768;53.540;10.224;2023-02-28T13:10:39;16.70;1.00
5492;DHT22;2768;53.540;10.224;2023-02-28T13:16:57;17.00;1.00
5492;DHT22;2768;53.540;10.224;2023-02-28T13:22:53;16.90;1.00
5492;DHT22;2768;53.540;10.224;2023-02-28T13:29:02;16.70;1.00
5492;DHT22;2768;53.540;10.224;2023-02-28T13:41:44;17.30;1.00
5492;DHT22;2768;53.540;10.224;2023-02-28T13:47:39;16.60;1.00
5492;DHT22;2768;53.540;10.224;2023-02-28T13:53:59;16.70;1.00
5492;DHT22;2768;53.540;10.224;2023-02-28T14:00:06;16.60;1.00
5492;DHT22;2768;53.540;10.224;2023-02-28T14:06:15;16.60;1.00
5492;DHT22;2768;53.540;10.224;2023-02-28T14:12:52;16.50;1.00
5492;DHT22;2768;53.540;10.224;2023-02-28T14:18:51;16.20;1.00
5492;DHT22;2768;53.540;10.224;2023-02-28T14:25:08;15.30;1.00
5492;DHT22;2768;53.540;10.224;2023-02-28T14:31:06;15.60;1.00
5492;DHT22;2768;53.540;10.224;2023-02-28T14:37:05;16.00;1.00
5492;DHT22;2768;53.540;10.224;2023-02-28T14:43:01;16.00;1.00
5492;DHT22;2768;53.540;10.224;2023-02-28T14:48:56;16.20;1.00
5492;DHT22;2768;53.540;10.224;2023-02-28T14:54:54;16.20;1.00
5492;DHT22;2768;53.540;10.224;2023-02-28T15:00:50;16.20;1.00
5492;DHT22;2768;53.540;10.224;2023-02-28T15:06:44;15.80;1.00
5492;DHT22;2768;53.540;10.224;2023-02-28T15:12:40;15.40;1.00
5492;DHT22;2768;53.540;10.224;2023-02-28T15:18:41;15.30;1.00
5492;DHT22;2768;53.540;10.224;2023-02-28T15:24:38;15.40;1.00
5492;DHT22;2768;53.540;10.224;2023-02-28T15:30:33;15.10;1.00
5492;DHT22;2768;53.540;10.224;2023-02-28T15:36:29;14.80;1.00
5492;DHT22;2768;53.540;10.224;2023-02-28T15:42:28;14.50;1.00
5492;DHT22;2768;53.540;10.224;2023-02-28T15:48:27;14.20;1.00
5492;DHT22;2768;53.540;10.224;2023-02-28T15:54:23;13.90;1.00
5492;DHT22;2768;53.540;10.224;2023-02-28T16:00:21;13.40;1.00
5492;DHT22;2768;53.540;10.224;2023-02-28T16:06:33;13.00;1.00
5492;DHT22;2768;53.540;10.224;2023-02-28T16:12:28;12.40;1.00
5492;DHT22;2768;53.540;10.224;2023-02-28T16:18:21;12.10;1.00
5492;DHT22;2768;53.540;10.224;2023-02-28T16:24:16;11.90;1.00
5492;DHT22;2768;53.540;10.224;2023-02-28T16:30:17;11.30;1.00
5492;DHT22;2768;53.540;10.224;2023-02-28T16:36:17;11.20;1.00
5492;DHT22;2768;53.540;10.224;2023-02-28T16:42:15;10.80;1.00
5492;DHT22;2768;53.540;10.224;2023-02-28T16:48:13;10.40;1.00
5492;DHT22;2768;53.540;10.224;2023-02-28T16:54:06;10.20;1.00
5492;DHT22;2768;53.540;10.224;2023-02-28T17:00:01;10.00;1.00
5492;DHT22;2768;53.540;10.224;2023-02-28T17:05:55;9.80;1.00
5492;DHT22;2768;53.540;10.224;2023-02-28T17:11:49;9.70;1.00
5492;DHT22;2768;53.540;10.224;2023-02-28T17:17:44;9.50;1.00
5492;DHT22;2768;53.540;10.224;2023-02-28T17:23:38;9.40;1.00
5492;DHT22;2768;53.540;10.224;2023-02-28T17:29:31;9.10;1.00
5492;DHT22;2768;53.540;10.224;2023-02-28T17:35:26;9.00;1.00
5492;DHT22;2768;53.540;10.224;2023-02-28T17:41:19;8.60;1.00
5492;DHT22;2768;53.540;10.224;2023-02-28T17:47:12;8.40;1.00
5492;DHT22;2768;53.540;10.224;2023-02-28T17:53:07;8.10;1.00
5492;DHT22;2768;53.540;10.224;2023-02-28T17:59:00;8.10;1.00
5492;DHT22;2768;53.540;10.224;2023-02-28T18:04:53;7.60;1.00
5492;DHT22;2768;53.540;10.224;2023-02-28T18:10:48;7.60;1.00
5492;DHT22;2768;53.540;10.224;2023-02-28T18:16:42;7.40;1.00
5492;DHT22;2768;53.540;10.224;2023-02-28T18:22:35;7.40;1.00
5492;DHT22;2768;53.540;10.224;2023-02-28T18:28:30;7.20;1.00
5492;DHT22;2768;53.540;10.224;2023-02-28T18:34:25;7.00;1.00
5492;DHT22;2768;53.540;10.224;2023-02-28T18:40:19;7.10;1.00
5492;DHT22;2768;53.540;10.224;2023-02-28T18:46:16;7.00;1.00
5492;DHT22;2768;53.540;10.224;2023-02-28T18:52:09;6.90;1.00
5492;DHT22;2768;53.540;10.224;2023-02-28T18:58:03;6.50;1.00
5492;DHT22;2768;53.540;10.224;2023-02-28T19:03:59;6.40;1.00
5492;DHT22;2768;53.540;10.224;2023-02-28T19:09:53;6.10;1.00
5492;DHT22;2768;53.540;10.224;2023-02-28T19:15:46;6.30;1.00
5492;DHT22;2768;53.540;10.224;2023-02-28T19:21:41;6.20;1.00
5492;DHT22;2768;53.540;10.224;2023-02-28T19:27:35;6.10;1.00
5492;DHT22;2768;53.540;10.224;2023-02-28T19:33:28;6.00;1.00
5492;DHT22;2768;53.540;10.224;2023-02-28T19:39:22;5.90;1.00
5492;DHT22;2768;53.540;10.224;2023-02-28T19:45:16;5.40;1.00
5492;DHT22;2768;53.540;10.224;2023-02-28T19:51:10;5.50;1.00
5492;DHT22;2768;53.540;10.224;2023-02-28T19:57:05;5.50;1.00
5492;DHT22;2768;53.540;10.224;2023-02-28T20:02:58;5.30;1.00
5492;DHT22;2768;53.540;10.224;2023-02-28T20:08:53;5.40;1.00
5492;DHT22;2768;53.540;10.224;2023-02-28T20:14:48;5.30;1.00
5492;DHT22;2768;53.540;10.224;2023-02-28T20:20:42;5.20;1.00
5492;DHT22;2768;53.540;10.224;2023-02-28T20:26:35;5.00;1.00
5492;DHT22;2768;53.540;10.224;2023-02-28T20:32:30;5.00;1.00
5492;DHT22;2768;53.540;10.224;2023-02-28T20:38:23;5.00;1.00
5492;DHT22;2768;53.540;10.224;2023-02-28T20:44:17;4.80;1.00
5492;DHT22;2768;53.540;10.224;2023-02-28T20:50:12;4.80;1.00
5492;DHT22;2768;53.540;10.224;2023-02-28T20:56:07;4.80;1.00
5492;DHT22;2768;53.540;10.224;2023-02-28T21:02:01;4.60;1.00
5492;DHT22;2768;53.540;10.224;2023-02-28T21:07:55;5.10;1.00
5492;DHT22;2768;53.540;10.224;2023-02-28T21:13:49;5.40;1.00
5492;DHT22;2768;53.540;10.224;2023-02-28T21:19:43;4.80;1.00
5492;DHT22;2768;53.540;10.224;2023-02-28T21:25:38;5.20;1.00
5492;DHT22;2768;53.540;10.224;2023-02-28T21:31:32;4.80;1.00
5492;DHT22;2768;53.540;10.224;2023-02-28T21:37:25;4.90;1.00
5492;DHT22;2768;53.540;10.224;2023-02-28T21:43:20;4.10;1.00
5492;DHT22;2768;53.540;10.224;2023-02-28T21:49:14;4.30;1.00
5492;DHT22;2768;53.540;10.224;2023-02-28T21:55:08;4.50;1.00
5492;DHT22;2768;53.540;10.224;2023-02-28T22:01:07;4.20;1.00
5492;DHT22;2768;53.540;10.224;2023-02-28T22:07:00;3.90;1.00
5492;DHT22;2768;53.540;10.224;2023-02-28T22:12:53;4.30;1.00
5492;DHT22;2768;53.540;10.224;2023-02-28T22:18:48;3.80;1.00
5492;DHT22;2768;53.540;10.224;2023-02-28T22:24:42;3.80;1.00
5492;DHT22;2768;53.540;10.224;2023-02-28T22:30:35;3.70;1.00
5492;DHT22;2768;53.540;10.224;2023-02-28T22:36:30;3.80;1.00
5492;DHT22;2768;53.540;10.224;2023-02-28T22:42:24;4.00;1.00
5492;DHT22;2768;53.540;10.224;2023-02-28T22:48:17;3.80;1.00
5492;DHT22;2768;53.540;10.224;2023-02-28T22:54:12;3.80;1.00
5492;DHT22;2768;53.540;10.224;2023-02-28T23:00:08;3.40;1.00
5492;DHT22;2768;53.540;10.224;2023-02-28T23:06:11;3.40;1.00
5492;DHT22;2768;53.540;10.224;2023-02-28T23:12:07;3.40;1.00
5492;DHT22;2768;53.540;10.224;2023-02-28T23:18:00;3.30;1.00
5492;DHT22;2768;53.540;10.224;2023-02-28T23:23:54;3.30;1.00
5492;DHT22;2768;53.540;10.224;2023-02-28T23:29:48;3.50;1.00
5492;DHT22;2768;53.540;10.224;2023-02-28T23:35:42;3.40;1.00
5492;DHT22;2768;53.540;10.224;2023-02-28T23:41:36;3.70;1.00
5492;DHT22;2768;53.540;10.224;2023-02-28T23:47:31;3.70;1.00
5492;DHT22;2768;53.540;10.224;2023-02-28T23:53:26;3.40;1.00
5492;DHT22;2768;53.540;10.224;2023-02-28T23:59:22;3.30;1.00
